sensor_id;sensor_type;location;lat;lon;timestamp;P1;durP1;ratioP1;P2;durP2;ratioP2
4754;SDS011;2391;47.212;7.542;2023-07-13T00:01:28;4.30;;;1.03;;
4754;SDS011;2391;47.212;7.542;2023-07-13T00:03:56;1.33;;;1.23;;
4754;SDS011;2391;47.212;7.542;2023-07-13T00:06:22;1.10;;;1.00;;
4754;SDS011;2391;47.212;7.542;2023-07-13T00:08:49;1.73;;;1.10;;
4754;SDS011;2391;47.212;7.542;2023-07-13T00:11:15;7.27;;;1.23;;
4754;SDS011;2391;47.212;7.542;2023-07-13T00:13:42;2.10;;;1.10;;
4754;SDS011;2391;47.212;7.542;2023-07-13T00:16:09;2.77;;;1.43;;
4754;SDS011;2391;47.212;7.542;2023-07-13T00:18:36;7.20;;;1.40;;
4754;SDS011;2391;47.212;7.542;2023-07-13T00:21:03;3.30;;;1.50;;
4754;SDS011;2391;47.212;7.542;2023-07-13T00:23:32;2.23;;;1.40;;
4754;SDS011;2391;47.212;7.542;2023-07-13T00:26:01;3.93;;;2.03;;
4754;SDS011;2391;47.212;7.542;2023-07-13T00:28:29;2.13;;;1.60;;
4754;SDS011;2391;47.212;7.542;2023-07-13T00:30:54;3.30;;;1.40;;
4754;SDS011;2391;47.212;7.542;2023-07-13T00:33:20;3.60;;;1.27;;
4754;SDS011;2391;47.212;7.542;2023-07-13T00:35:48;1.33;;;1.23;;
4754;SDS011;2391;47.212;7.542;2023-07-13T00:38:14;3.67;;;1.20;;
4754;SDS011;2391;47.212;7.542;2023-07-13T00:40:40;1.83;;;1.10;;
4754;SDS011;2391;47.212;7.542;2023-07-13T00:43:13;1.43;;;1.20;;
4754;SDS011;2391;47.212;7.542;2023-07-13T00:48:14;1.20;;;1.10;;
4754;SDS011;2391;47.212;7.542;2023-07-13T00:50:43;1.97;;;0.90;;
4754;SDS011;2391;47.212;7.542;2023-07-13T00:53:12;1.30;;;1.17;;
4754;SDS011;2391;47.212;7.542;2023-07-13T00:55:38;2.93;;;1.10;;
4754;SDS011;2391;47.212;7.542;2023-07-13T00:58:05;1.87;;;1.17;;
4754;SDS011;2391;47.212;7.542;2023-07-13T01:00:32;0.90;;;0.90;;
4754;SDS011;2391;47.212;7.542;2023-07-13T01:03:01;3.60;;;1.00;;
4754;SDS011;2391;47.212;7.542;2023-07-13T01:05:30;7.33;;;1.93;;
4754;SDS011;2391;47.212;7.542;2023-07-13T01:07:58;5.33;;;1.83;;
4754;SDS011;2391;47.212;7.542;2023-07-13T01:10:26;7.93;;;1.43;;
4754;SDS011;2391;47.212;7.542;2023-07-13T01:12:51;2.37;;;1.23;;
4754;SDS011;2391;47.212;7.542;2023-07-13T01:18:14;2.93;;;1.80;;
4754;SDS011;2391;47.212;7.542;2023-07-13T01:20:38;4.90;;;1.20;;
4754;SDS011;2391;47.212;7.542;2023-07-13T01:23:05;2.17;;;1.40;;
4754;SDS011;2391;47.212;7.542;2023-07-13T01:25:32;3.80;;;1.60;;
4754;SDS011;2391;47.212;7.542;2023-07-13T01:27:59;1.30;;;1.20;;
4754;SDS011;2391;47.212;7.542;2023-07-13T01:30:25;3.03;;;1.23;;
4754;SDS011;2391;47.212;7.542;2023-07-13T01:32:50;4.77;;;1.63;;
4754;SDS011;2391;47.212;7.542;2023-07-13T01:35:16;3.07;;;1.80;;
4754;SDS011;2391;47.212;7.542;2023-07-13T01:37:42;2.10;;;1.20;;
4754;SDS011;2391;47.212;7.542;2023-07-13T01:40:10;2.47;;;1.30;;
4754;SDS011;2391;47.212;7.542;2023-07-13T01:42:36;2.33;;;1.30;;
4754;SDS011;2391;47.212;7.542;2023-07-13T01:45:02;1.97;;;1.43;;
4754;SDS011;2391;47.212;7.542;2023-07-13T01:47:29;1.60;;;1.50;;
4754;SDS011;2391;47.212;7.542;2023-07-13T01:49:56;1.77;;;1.40;;
4754;SDS011;2391;47.212;7.542;2023-07-13T01:52:22;3.13;;;1.40;;
4754;SDS011;2391;47.212;7.542;2023-07-13T01:54:48;2.00;;;1.30;;
4754;SDS011;2391;47.212;7.542;2023-07-13T01:57:15;1.50;;;1.10;;
4754;SDS011;2391;47.212;7.542;2023-07-13T01:59:40;1.20;;;1.00;;
4754;SDS011;2391;47.212;7.542;2023-07-13T02:02:06;2.80;;;1.10;;
4754;SDS011;2391;47.212;7.542;2023-07-13T02:04:32;2.90;;;1.30;;
4754;SDS011;2391;47.212;7.542;2023-07-13T02:06:58;2.33;;;1.60;;
4754;SDS011;2391;47.212;7.542;2023-07-13T02:09:24;1.00;;;0.90;;
4754;SDS011;2391;47.212;7.542;2023-07-13T02:11:49;5.53;;;1.87;;
4754;SDS011;2391;47.212;7.542;2023-07-13T02:14:15;1.83;;;1.30;;
4754;SDS011;2391;47.212;7.542;2023-07-13T02:16:41;2.30;;;1.30;;
4754;SDS011;2391;47.212;7.542;2023-07-13T02:19:07;3.57;;;1.30;;
4754;SDS011;2391;47.212;7.542;2023-07-13T02:21:33;8.10;;;1.00;;
4754;SDS011;2391;47.212;7.542;2023-07-13T02:24:00;3.37;;;1.23;;
4754;SDS011;2391;47.212;7.542;2023-07-13T02:26:26;6.43;;;1.70;;
4754;SDS011;2391;47.212;7.542;2023-07-13T02:28:52;3.57;;;1.13;;
4754;SDS011;2391;47.212;7.542;2023-07-13T02:31:18;2.40;;;1.23;;
4754;SDS011;2391;47.212;7.542;2023-07-13T02:33:44;4.93;;;1.10;;
4754;SDS011;2391;47.212;7.542;2023-07-13T02:36:11;6.73;;;1.30;;
4754;SDS011;2391;47.212;7.542;2023-07-13T02:38:37;2.27;;;1.50;;
4754;SDS011;2391;47.212;7.542;2023-07-13T02:41:04;1.83;;;1.30;;
4754;SDS011;2391;47.212;7.542;2023-07-13T02:43:32;1.13;;;1.00;;
4754;SDS011;2391;47.212;7.542;2023-07-13T02:45:59;1.50;;;1.40;;
4754;SDS011;2391;47.212;7.542;2023-07-13T02:48:27;1.40;;;0.90;;
4754;SDS011;2391;47.212;7.542;2023-07-13T02:50:52;1.37;;;1.27;;
4754;SDS011;2391;47.212;7.542;2023-07-13T02:53:18;2.80;;;1.30;;
4754;SDS011;2391;47.212;7.542;2023-07-13T02:55:44;2.10;;;1.03;;
4754;SDS011;2391;47.212;7.542;2023-07-13T02:58:11;1.13;;;1.03;;
4754;SDS011;2391;47.212;7.542;2023-07-13T03:00:37;2.10;;;1.10;;
4754;SDS011;2391;47.212;7.542;2023-07-13T03:03:06;1.00;;;0.90;;
4754;SDS011;2391;47.212;7.542;2023-07-13T03:05:32;2.30;;;1.40;;
4754;SDS011;2391;47.212;7.542;2023-07-13T03:07:58;1.40;;;1.30;;
4754;SDS011;2391;47.212;7.542;2023-07-13T03:10:24;1.77;;;1.30;;
4754;SDS011;2391;47.212;7.542;2023-07-13T03:12:50;4.27;;;1.93;;
4754;SDS011;2391;47.212;7.542;2023-07-13T03:15:16;3.10;;;1.33;;
4754;SDS011;2391;47.212;7.542;2023-07-13T03:17:42;2.80;;;1.30;;
4754;SDS011;2391;47.212;7.542;2023-07-13T03:20:08;1.93;;;1.37;;
4754;SDS011;2391;47.212;7.542;2023-07-13T03:22:34;2.23;;;1.10;;
4754;SDS011;2391;47.212;7.542;2023-07-13T03:25:00;6.57;;;1.53;;
4754;SDS011;2391;47.212;7.542;2023-07-13T03:27:26;3.30;;;1.50;;
4754;SDS011;2391;47.212;7.542;2023-07-13T03:29:51;2.63;;;1.40;;
4754;SDS011;2391;47.212;7.542;2023-07-13T03:32:17;1.77;;;1.23;;
4754;SDS011;2391;47.212;7.542;2023-07-13T03:34:43;1.60;;;1.50;;
4754;SDS011;2391;47.212;7.542;2023-07-13T03:37:08;3.20;;;1.40;;
4754;SDS011;2391;47.212;7.542;2023-07-13T03:39:34;2.40;;;1.40;;
4754;SDS011;2391;47.212;7.542;2023-07-13T03:42:00;1.60;;;1.40;;
4754;SDS011;2391;47.212;7.542;2023-07-13T03:44:25;2.23;;;1.50;;
4754;SDS011;2391;47.212;7.542;2023-07-13T03:46:51;1.37;;;1.27;;
4754;SDS011;2391;47.212;7.542;2023-07-13T03:49:17;2.00;;;1.50;;
4754;SDS011;2391;47.212;7.542;2023-07-13T03:51:43;1.63;;;1.50;;
4754;SDS011;2391;47.212;7.542;2023-07-13T03:54:08;1.33;;;1.20;;
4754;SDS011;2391;47.212;7.542;2023-07-13T03:56:34;1.40;;;1.30;;
4754;SDS011;2391;47.212;7.542;2023-07-13T03:59:00;4.47;;;1.00;;
4754;SDS011;2391;47.212;7.542;2023-07-13T04:01:25;1.17;;;1.07;;
4754;SDS011;2391;47.212;7.542;2023-07-13T04:03:51;1.40;;;1.30;;
4754;SDS011;2391;47.212;7.542;2023-07-13T04:06:19;2.00;;;1.30;;
4754;SDS011;2391;47.212;7.542;2023-07-13T04:08:48;1.80;;;1.40;;
4754;SDS011;2391;47.212;7.542;2023-07-13T04:11:19;2.63;;;1.40;;
4754;SDS011;2391;47.212;7.542;2023-07-13T04:13:47;5.30;;;1.30;;
4754;SDS011;2391;47.212;7.542;2023-07-13T04:16:13;1.70;;;1.20;;
4754;SDS011;2391;47.212;7.542;2023-07-13T04:18:40;1.40;;;1.30;;
4754;SDS011;2391;47.212;7.542;2023-07-13T04:21:06;1.40;;;1.07;;
4754;SDS011;2391;47.212;7.542;2023-07-13T04:23:34;1.30;;;1.13;;
4754;SDS011;2391;47.212;7.542;2023-07-13T04:26:02;2.47;;;1.30;;
4754;SDS011;2391;47.212;7.542;2023-07-13T04:28:27;1.37;;;1.27;;
4754;SDS011;2391;47.212;7.542;2023-07-13T04:30:53;2.20;;;1.30;;
4754;SDS011;2391;47.212;7.542;2023-07-13T04:33:21;1.30;;;1.17;;
4754;SDS011;2391;47.212;7.542;2023-07-13T04:35:48;2.53;;;1.20;;
4754;SDS011;2391;47.212;7.542;2023-07-13T04:38:17;1.40;;;1.30;;
4754;SDS011;2391;47.212;7.542;2023-07-13T04:40:46;1.10;;;1.00;;
4754;SDS011;2391;47.212;7.542;2023-07-13T04:43:13;3.00;;;1.27;;
4754;SDS011;2391;47.212;7.542;2023-07-13T04:45:38;2.40;;;1.43;;
4754;SDS011;2391;47.212;7.542;2023-07-13T04:48:04;1.50;;;1.03;;
4754;SDS011;2391;47.212;7.542;2023-07-13T04:50:30;3.03;;;1.80;;
4754;SDS011;2391;47.212;7.542;2023-07-13T04:52:56;5.37;;;1.40;;
4754;SDS011;2391;47.212;7.542;2023-07-13T04:55:21;1.47;;;1.10;;
4754;SDS011;2391;47.212;7.542;2023-07-13T04:57:47;1.30;;;1.20;;
4754;SDS011;2391;47.212;7.542;2023-07-13T05:00:13;2.60;;;1.67;;
4754;SDS011;2391;47.212;7.542;2023-07-13T05:02:43;2.00;;;1.33;;
4754;SDS011;2391;47.212;7.542;2023-07-13T05:05:11;1.40;;;1.30;;
4754;SDS011;2391;47.212;7.542;2023-07-13T05:07:37;1.20;;;1.10;;
4754;SDS011;2391;47.212;7.542;2023-07-13T05:10:03;2.70;;;1.23;;
4754;SDS011;2391;47.212;7.542;2023-07-13T05:12:29;2.90;;;1.03;;
4754;SDS011;2391;47.212;7.542;2023-07-13T05:14:55;1.47;;;1.10;;
4754;SDS011;2391;47.212;7.542;2023-07-13T05:17:21;1.50;;;1.37;;
4754;SDS011;2391;47.212;7.542;2023-07-13T05:19:47;2.60;;;1.20;;
4754;SDS011;2391;47.212;7.542;2023-07-13T05:22:13;1.33;;;1.23;;
4754;SDS011;2391;47.212;7.542;2023-07-13T05:24:38;4.40;;;1.50;;
4754;SDS011;2391;47.212;7.542;2023-07-13T05:27:04;6.90;;;1.40;;
4754;SDS011;2391;47.212;7.542;2023-07-13T05:29:30;1.30;;;1.20;;
4754;SDS011;2391;47.212;7.542;2023-07-13T05:31:56;1.97;;;1.30;;
4754;SDS011;2391;47.212;7.542;2023-07-13T05:34:22;2.40;;;1.27;;
4754;SDS011;2391;47.212;7.542;2023-07-13T05:36:48;1.50;;;1.40;;
4754;SDS011;2391;47.212;7.542;2023-07-13T05:39:15;2.80;;;1.63;;
4754;SDS011;2391;47.212;7.542;2023-07-13T05:41:41;3.60;;;1.90;;
4754;SDS011;2391;47.212;7.542;2023-07-13T05:44:07;2.73;;;1.60;;
4754;SDS011;2391;47.212;7.542;2023-07-13T05:46:33;9.80;;;1.30;;
4754;SDS011;2391;47.212;7.542;2023-07-13T05:48:59;1.20;;;1.10;;
4754;SDS011;2391;47.212;7.542;2023-07-13T05:51:25;2.63;;;1.90;;
4754;SDS011;2391;47.212;7.542;2023-07-13T05:53:50;2.40;;;1.60;;
4754;SDS011;2391;47.212;7.542;2023-07-13T05:56:16;3.33;;;1.90;;
4754;SDS011;2391;47.212;7.542;2023-07-13T05:58:42;2.40;;;1.73;;
4754;SDS011;2391;47.212;7.542;2023-07-13T06:01:11;2.30;;;1.57;;
4754;SDS011;2391;47.212;7.542;2023-07-13T06:03:39;2.93;;;1.47;;
4754;SDS011;2391;47.212;7.542;2023-07-13T06:06:05;2.73;;;1.70;;
4754;SDS011;2391;47.212;7.542;2023-07-13T06:08:32;3.20;;;1.73;;
4754;SDS011;2391;47.212;7.542;2023-07-13T06:11:02;1.80;;;1.20;;
4754;SDS011;2391;47.212;7.542;2023-07-13T06:13:33;1.40;;;1.30;;
4754;SDS011;2391;47.212;7.542;2023-07-13T06:15:59;2.50;;;1.57;;
4754;SDS011;2391;47.212;7.542;2023-07-13T06:18:26;2.13;;;1.37;;
4754;SDS011;2391;47.212;7.542;2023-07-13T06:20:51;1.40;;;1.30;;
4754;SDS011;2391;47.212;7.542;2023-07-13T06:23:17;3.20;;;1.40;;
4754;SDS011;2391;47.212;7.542;2023-07-13T06:25:43;6.70;;;1.33;;
4754;SDS011;2391;47.212;7.542;2023-07-13T06:28:09;1.80;;;1.40;;
4754;SDS011;2391;47.212;7.542;2023-07-13T06:30:35;1.53;;;1.43;;
4754;SDS011;2391;47.212;7.542;2023-07-13T06:33:02;2.60;;;1.60;;
4754;SDS011;2391;47.212;7.542;2023-07-13T06:35:28;1.57;;;1.47;;
4754;SDS011;2391;47.212;7.542;2023-07-13T06:37:54;2.70;;;1.47;;
4754;SDS011;2391;47.212;7.542;2023-07-13T06:40:19;2.67;;;1.10;;
4754;SDS011;2391;47.212;7.542;2023-07-13T06:42:45;1.37;;;1.27;;
4754;SDS011;2391;47.212;7.542;2023-07-13T06:45:11;1.67;;;1.47;;
4754;SDS011;2391;47.212;7.542;2023-07-13T06:47:37;2.47;;;1.53;;
4754;SDS011;2391;47.212;7.542;2023-07-13T06:50:02;2.27;;;1.90;;
4754;SDS011;2391;47.212;7.542;2023-07-13T06:52:28;1.53;;;1.40;;
4754;SDS011;2391;47.212;7.542;2023-07-13T06:54:54;2.60;;;1.43;;
4754;SDS011;2391;47.212;7.542;2023-07-13T06:57:20;2.03;;;1.60;;
4754;SDS011;2391;47.212;7.542;2023-07-13T06:59:45;1.93;;;1.80;;
4754;SDS011;2391;47.212;7.542;2023-07-13T07:02:11;1.90;;;1.77;;
4754;SDS011;2391;47.212;7.542;2023-07-13T07:04:37;1.70;;;1.60;;
4754;SDS011;2391;47.212;7.542;2023-07-13T07:07:03;3.73;;;1.93;;
4754;SDS011;2391;47.212;7.542;2023-07-13T07:09:28;1.60;;;1.50;;
4754;SDS011;2391;47.212;7.542;2023-07-13T07:11:56;3.57;;;2.00;;
4754;SDS011;2391;47.212;7.542;2023-07-13T07:14:22;2.07;;;1.90;;
4754;SDS011;2391;47.212;7.542;2023-07-13T07:16:49;1.80;;;1.70;;
4754;SDS011;2391;47.212;7.542;2023-07-13T07:19:15;2.73;;;2.10;;
4754;SDS011;2391;47.212;7.542;2023-07-13T07:21:41;1.70;;;1.60;;
4754;SDS011;2391;47.212;7.542;2023-07-13T07:24:07;1.63;;;1.50;;
4754;SDS011;2391;47.212;7.542;2023-07-13T07:26:34;1.83;;;1.73;;
4754;SDS011;2391;47.212;7.542;2023-07-13T07:29:00;1.73;;;1.47;;
4754;SDS011;2391;47.212;7.542;2023-07-13T07:31:25;1.70;;;1.60;;
4754;SDS011;2391;47.212;7.542;2023-07-13T07:33:51;2.20;;;1.83;;
4754;SDS011;2391;47.212;7.542;2023-07-13T07:36:17;4.37;;;1.60;;
4754;SDS011;2391;47.212;7.542;2023-07-13T07:38:43;1.77;;;1.53;;
4754;SDS011;2391;47.212;7.542;2023-07-13T07:41:09;3.63;;;1.07;;
4754;SDS011;2391;47.212;7.542;2023-07-13T07:43:35;1.53;;;1.33;;
4754;SDS011;2391;47.212;7.542;2023-07-13T07:46:02;1.33;;;1.23;;
4754;SDS011;2391;47.212;7.542;2023-07-13T07:48:27;1.50;;;1.40;;
4754;SDS011;2391;47.212;7.542;2023-07-13T07:50:53;1.67;;;1.30;;
4754;SDS011;2391;47.212;7.542;2023-07-13T07:53:19;1.80;;;1.40;;
4754;SDS011;2391;47.212;7.542;2023-07-13T07:55:45;2.70;;;1.57;;
4754;SDS011;2391;47.212;7.542;2023-07-13T07:58:10;1.73;;;1.60;;
4754;SDS011;2391;47.212;7.542;2023-07-13T08:00:36;3.37;;;1.70;;
4754;SDS011;2391;47.212;7.542;2023-07-13T08:03:02;2.57;;;1.93;;
4754;SDS011;2391;47.212;7.542;2023-07-13T08:05:28;2.60;;;1.80;;
4754;SDS011;2391;47.212;7.542;2023-07-13T08:07:54;3.43;;;1.93;;
4754;SDS011;2391;47.212;7.542;2023-07-13T08:10:20;2.00;;;1.90;;
4754;SDS011;2391;47.212;7.542;2023-07-13T08:12:45;1.40;;;1.30;;
4754;SDS011;2391;47.212;7.542;2023-07-13T08:15:13;2.07;;;1.93;;
4754;SDS011;2391;47.212;7.542;2023-07-13T08:17:40;3.33;;;1.40;;
4754;SDS011;2391;47.212;7.542;2023-07-13T08:20:06;1.77;;;1.20;;
4754;SDS011;2391;47.212;7.542;2023-07-13T08:22:34;1.30;;;1.20;;
4754;SDS011;2391;47.212;7.542;2023-07-13T08:25:00;2.43;;;1.10;;
4754;SDS011;2391;47.212;7.542;2023-07-13T08:27:27;1.63;;;1.20;;
4754;SDS011;2391;47.212;7.542;2023-07-13T08:29:53;1.20;;;1.00;;
4754;SDS011;2391;47.212;7.542;2023-07-13T08:32:20;0.93;;;0.80;;
4754;SDS011;2391;47.212;7.542;2023-07-13T08:34:47;2.20;;;0.83;;
4754;SDS011;2391;47.212;7.542;2023-07-13T08:37:14;0.90;;;0.90;;
4754;SDS011;2391;47.212;7.542;2023-07-13T08:39:40;0.80;;;0.70;;
4754;SDS011;2391;47.212;7.542;2023-07-13T08:42:53;1.00;;;0.80;;
4754;SDS011;2391;47.212;7.542;2023-07-13T08:44:49;1.20;;;0.80;;
4754;SDS011;2391;47.212;7.542;2023-07-13T08:47:17;0.83;;;0.83;;
4754;SDS011;2391;47.212;7.542;2023-07-13T08:49:46;1.33;;;0.90;;
4754;SDS011;2391;47.212;7.542;2023-07-13T08:52:17;1.37;;;1.10;;
4754;SDS011;2391;47.212;7.542;2023-07-13T08:54:45;1.27;;;0.80;;
4754;SDS011;2391;47.212;7.542;2023-07-13T08:57:15;0.73;;;0.73;;
4754;SDS011;2391;47.212;7.542;2023-07-13T08:59:43;4.77;;;1.00;;
4754;SDS011;2391;47.212;7.542;2023-07-13T09:04:56;1.00;;;1.00;;
4754;SDS011;2391;47.212;7.542;2023-07-13T09:07:29;0.90;;;0.90;;
4754;SDS011;2391;47.212;7.542;2023-07-13T09:10:11;2.20;;;1.00;;
4754;SDS011;2391;47.212;7.542;2023-07-13T09:17:52;1.10;;;1.00;;
4754;SDS011;2391;47.212;7.542;2023-07-13T09:20:37;1.80;;;0.77;;
4754;SDS011;2391;47.212;7.542;2023-07-13T09:23:19;0.87;;;0.87;;
4754;SDS011;2391;47.212;7.542;2023-07-13T09:25:47;1.13;;;1.00;;
4754;SDS011;2391;47.212;7.542;2023-07-13T09:28:22;0.93;;;0.80;;
4754;SDS011;2391;47.212;7.542;2023-07-13T09:30:51;1.73;;;1.07;;
4754;SDS011;2391;47.212;7.542;2023-07-13T09:33:20;5.03;;;1.20;;
4754;SDS011;2391;47.212;7.542;2023-07-13T09:35:46;2.80;;;1.00;;
4754;SDS011;2391;47.212;7.542;2023-07-13T09:38:16;1.60;;;0.90;;
4754;SDS011;2391;47.212;7.542;2023-07-13T09:40:59;1.60;;;1.50;;
4754;SDS011;2391;47.212;7.542;2023-07-13T09:43:36;1.90;;;1.00;;
4754;SDS011;2391;47.212;7.542;2023-07-13T09:46:01;1.47;;;0.93;;
4754;SDS011;2391;47.212;7.542;2023-07-13T09:48:33;3.40;;;1.00;;
4754;SDS011;2391;47.212;7.542;2023-07-13T09:51:06;1.30;;;0.80;;
4754;SDS011;2391;47.212;7.542;2023-07-13T09:53:41;2.90;;;1.00;;
4754;SDS011;2391;47.212;7.542;2023-07-13T09:56:28;2.97;;;0.90;;
4754;SDS011;2391;47.212;7.542;2023-07-13T09:58:46;0.90;;;0.90;;
4754;SDS011;2391;47.212;7.542;2023-07-13T10:01:11;1.50;;;0.80;;
4754;SDS011;2391;47.212;7.542;2023-07-13T10:03:37;0.73;;;0.73;;
4754;SDS011;2391;47.212;7.542;2023-07-13T10:06:12;2.33;;;0.73;;
4754;SDS011;2391;47.212;7.542;2023-07-13T10:08:39;2.80;;;0.80;;
4754;SDS011;2391;47.212;7.542;2023-07-13T10:11:09;0.80;;;0.70;;
4754;SDS011;2391;47.212;7.542;2023-07-13T10:13:57;2.70;;;0.80;;
4754;SDS011;2391;47.212;7.542;2023-07-13T10:16:26;1.30;;;1.10;;
4754;SDS011;2391;47.212;7.542;2023-07-13T10:18:56;1.90;;;1.10;;
4754;SDS011;2391;47.212;7.542;2023-07-13T10:21:32;1.37;;;1.00;;
4754;SDS011;2391;47.212;7.542;2023-07-13T10:24:06;2.50;;;0.90;;
4754;SDS011;2391;47.212;7.542;2023-07-13T10:26:33;0.80;;;0.73;;
4754;SDS011;2391;47.212;7.542;2023-07-13T10:29:05;2.30;;;1.00;;
4754;SDS011;2391;47.212;7.542;2023-07-13T10:31:30;1.00;;;0.70;;
4754;SDS011;2391;47.212;7.542;2023-07-13T10:33:57;3.33;;;0.90;;
4754;SDS011;2391;47.212;7.542;2023-07-13T10:36:56;1.37;;;0.90;;
4754;SDS011;2391;47.212;7.542;2023-07-13T10:39:02;4.53;;;1.00;;
4754;SDS011;2391;47.212;7.542;2023-07-13T10:41:31;1.10;;;0.90;;
4754;SDS011;2391;47.212;7.542;2023-07-13T10:44:03;1.80;;;0.93;;
4754;SDS011;2391;47.212;7.542;2023-07-13T10:46:30;1.40;;;1.03;;
4754;SDS011;2391;47.212;7.542;2023-07-13T10:48:57;2.03;;;0.90;;
4754;SDS011;2391;47.212;7.542;2023-07-13T10:51:25;1.20;;;1.00;;
4754;SDS011;2391;47.212;7.542;2023-07-13T10:56:50;5.60;;;1.03;;
4754;SDS011;2391;47.212;7.542;2023-07-13T10:59:19;1.30;;;1.00;;
4754;SDS011;2391;47.212;7.542;2023-07-13T11:04:22;1.90;;;1.00;;
4754;SDS011;2391;47.212;7.542;2023-07-13T11:06:52;2.10;;;1.00;;
4754;SDS011;2391;47.212;7.542;2023-07-13T11:13:02;1.00;;;0.90;;
4754;SDS011;2391;47.212;7.542;2023-07-13T11:15:02;1.00;;;0.90;;
4754;SDS011;2391;47.212;7.542;2023-07-13T11:17:47;0.80;;;0.80;;
4754;SDS011;2391;47.212;7.542;2023-07-13T11:20:09;1.20;;;0.83;;
4754;SDS011;2391;47.212;7.542;2023-07-13T11:22:45;0.90;;;0.90;;
4754;SDS011;2391;47.212;7.542;2023-07-13T11:25:36;1.10;;;0.90;;
4754;SDS011;2391;47.212;7.542;2023-07-13T11:27:52;2.20;;;0.90;;
4754;SDS011;2391;47.212;7.542;2023-07-13T11:35:47;1.80;;;0.97;;
4754;SDS011;2391;47.212;7.542;2023-07-13T11:38:30;1.47;;;0.80;;
4754;SDS011;2391;47.212;7.542;2023-07-13T11:41:06;2.63;;;1.10;;
4754;SDS011;2391;47.212;7.542;2023-07-13T11:43:34;1.00;;;0.80;;
4754;SDS011;2391;47.212;7.542;2023-07-13T11:48:47;3.00;;;0.97;;
4754;SDS011;2391;47.212;7.542;2023-07-13T11:51:23;0.83;;;0.83;;
4754;SDS011;2391;47.212;7.542;2023-07-13T11:53:54;2.00;;;0.97;;
4754;SDS011;2391;47.212;7.542;2023-07-13T11:56:23;1.47;;;1.10;;
4754;SDS011;2391;47.212;7.542;2023-07-13T11:58:51;0.97;;;0.83;;
4754;SDS011;2391;47.212;7.542;2023-07-13T12:01:20;1.00;;;0.90;;
4754;SDS011;2391;47.212;7.542;2023-07-13T12:03:49;2.50;;;1.10;;
4754;SDS011;2391;47.212;7.542;2023-07-13T12:06:22;3.17;;;1.30;;
4754;SDS011;2391;47.212;7.542;2023-07-13T12:09:01;0.90;;;0.90;;
4754;SDS011;2391;47.212;7.542;2023-07-13T12:11:29;1.67;;;1.17;;
4754;SDS011;2391;47.212;7.542;2023-07-13T12:13:55;1.33;;;0.80;;
4754;SDS011;2391;47.212;7.542;2023-07-13T12:16:24;1.07;;;1.00;;
4754;SDS011;2391;47.212;7.542;2023-07-13T12:18:55;2.87;;;1.20;;
4754;SDS011;2391;47.212;7.542;2023-07-13T12:21:24;2.70;;;0.97;;
4754;SDS011;2391;47.212;7.542;2023-07-13T12:23:51;1.70;;;1.00;;
4754;SDS011;2391;47.212;7.542;2023-07-13T12:26:17;2.83;;;1.00;;
4754;SDS011;2391;47.212;7.542;2023-07-13T12:28:47;1.40;;;1.03;;
4754;SDS011;2391;47.212;7.542;2023-07-13T12:31:36;1.43;;;0.83;;
4754;SDS011;2391;47.212;7.542;2023-07-13T12:33:56;1.83;;;1.00;;
4754;SDS011;2391;47.212;7.542;2023-07-13T12:36:31;1.33;;;0.90;;
4754;SDS011;2391;47.212;7.542;2023-07-13T12:39:00;1.43;;;0.90;;
4754;SDS011;2391;47.212;7.542;2023-07-13T12:41:29;5.37;;;1.10;;
4754;SDS011;2391;47.212;7.542;2023-07-13T12:43:56;1.10;;;1.00;;
4754;SDS011;2391;47.212;7.542;2023-07-13T12:46:23;4.50;;;2.80;;
4754;SDS011;2391;47.212;7.542;2023-07-13T12:48:52;1.03;;;0.90;;
4754;SDS011;2391;47.212;7.542;2023-07-13T12:51:26;1.80;;;1.00;;
4754;SDS011;2391;47.212;7.542;2023-07-13T12:54:04;1.63;;;1.07;;
4754;SDS011;2391;47.212;7.542;2023-07-13T12:56:26;1.40;;;0.90;;
4754;SDS011;2391;47.212;7.542;2023-07-13T12:58:58;0.83;;;0.83;;
4754;SDS011;2391;47.212;7.542;2023-07-13T13:01:27;1.13;;;0.90;;
4754;SDS011;2391;47.212;7.542;2023-07-13T13:03:55;1.37;;;0.90;;
4754;SDS011;2391;47.212;7.542;2023-07-13T13:06:23;6.00;;;1.00;;
4754;SDS011;2391;47.212;7.542;2023-07-13T13:08:52;3.70;;;1.00;;
4754;SDS011;2391;47.212;7.542;2023-07-13T13:11:21;1.23;;;0.83;;
4754;SDS011;2391;47.212;7.542;2023-07-13T13:13:48;1.00;;;0.87;;
4754;SDS011;2391;47.212;7.542;2023-07-13T13:18:47;3.27;;;0.80;;
4754;SDS011;2391;47.212;7.542;2023-07-13T13:21:15;3.17;;;1.10;;
4754;SDS011;2391;47.212;7.542;2023-07-13T13:23:42;1.53;;;1.00;;
4754;SDS011;2391;47.212;7.542;2023-07-13T13:26:18;1.90;;;1.00;;
4754;SDS011;2391;47.212;7.542;2023-07-13T13:28:43;1.27;;;0.70;;
4754;SDS011;2391;47.212;7.542;2023-07-13T13:31:10;2.37;;;1.00;;
4754;SDS011;2391;47.212;7.542;2023-07-13T13:33:41;1.37;;;1.00;;
4754;SDS011;2391;47.212;7.542;2023-07-13T13:36:13;1.07;;;0.90;;
4754;SDS011;2391;47.212;7.542;2023-07-13T13:38:42;3.00;;;0.80;;
4754;SDS011;2391;47.212;7.542;2023-07-13T13:41:10;0.77;;;0.77;;
4754;SDS011;2391;47.212;7.542;2023-07-13T13:43:38;1.33;;;0.90;;
4754;SDS011;2391;47.212;7.542;2023-07-13T13:46:11;0.80;;;0.80;;
4754;SDS011;2391;47.212;7.542;2023-07-13T13:48:43;2.17;;;0.80;;
4754;SDS011;2391;47.212;7.542;2023-07-13T13:51:13;2.13;;;1.17;;
4754;SDS011;2391;47.212;7.542;2023-07-13T13:53:44;1.53;;;0.90;;
4754;SDS011;2391;47.212;7.542;2023-07-13T13:56:11;1.03;;;0.90;;
4754;SDS011;2391;47.212;7.542;2023-07-13T13:58:38;22.20;;;1.03;;
4754;SDS011;2391;47.212;7.542;2023-07-13T14:01:04;1.63;;;0.90;;
4754;SDS011;2391;47.212;7.542;2023-07-13T14:03:32;1.00;;;0.80;;
4754;SDS011;2391;47.212;7.542;2023-07-13T14:05:57;1.00;;;0.90;;
4754;SDS011;2391;47.212;7.542;2023-07-13T14:08:23;0.90;;;0.80;;
4754;SDS011;2391;47.212;7.542;2023-07-13T14:10:49;4.53;;;0.80;;
4754;SDS011;2391;47.212;7.542;2023-07-13T14:13:22;0.83;;;0.80;;
4754;SDS011;2391;47.212;7.542;2023-07-13T14:15:53;1.03;;;0.90;;
4754;SDS011;2391;47.212;7.542;2023-07-13T14:18:20;3.17;;;0.70;;
4754;SDS011;2391;47.212;7.542;2023-07-13T14:20:46;1.10;;;0.90;;
4754;SDS011;2391;47.212;7.542;2023-07-13T14:23:16;1.57;;;0.70;;
4754;SDS011;2391;47.212;7.542;2023-07-13T14:25:47;1.80;;;0.77;;
4754;SDS011;2391;47.212;7.542;2023-07-13T14:28:17;1.90;;;0.80;;
4754;SDS011;2391;47.212;7.542;2023-07-13T14:30:51;0.80;;;0.70;;
4754;SDS011;2391;47.212;7.542;2023-07-13T14:33:18;1.07;;;0.70;;
4754;SDS011;2391;47.212;7.542;2023-07-13T14:35:44;1.20;;;0.70;;
4754;SDS011;2391;47.212;7.542;2023-07-13T14:38:10;2.70;;;0.80;;
4754;SDS011;2391;47.212;7.542;2023-07-13T14:40:39;2.63;;;0.83;;
4754;SDS011;2391;47.212;7.542;2023-07-13T14:43:04;1.17;;;0.93;;
4754;SDS011;2391;47.212;7.542;2023-07-13T14:45:38;3.00;;;0.97;;
4754;SDS011;2391;47.212;7.542;2023-07-13T14:48:15;0.90;;;0.73;;
4754;SDS011;2391;47.212;7.542;2023-07-13T14:50:49;9.30;;;0.90;;
4754;SDS011;2391;47.212;7.542;2023-07-13T14:53:22;0.97;;;0.87;;
4754;SDS011;2391;47.212;7.542;2023-07-13T14:55:50;3.13;;;1.00;;
4754;SDS011;2391;47.212;7.542;2023-07-13T14:58:16;3.27;;;1.10;;
4754;SDS011;2391;47.212;7.542;2023-07-13T15:00:41;0.90;;;0.80;;
4754;SDS011;2391;47.212;7.542;2023-07-13T15:03:14;6.63;;;1.70;;
4754;SDS011;2391;47.212;7.542;2023-07-13T15:05:44;1.20;;;0.80;;
4754;SDS011;2391;47.212;7.542;2023-07-13T15:08:11;1.77;;;0.70;;
4754;SDS011;2391;47.212;7.542;2023-07-13T15:10:37;1.23;;;0.80;;
4754;SDS011;2391;47.212;7.542;2023-07-13T15:15:49;4.73;;;0.97;;
4754;SDS011;2391;47.212;7.542;2023-07-13T15:18:20;3.70;;;0.70;;
4754;SDS011;2391;47.212;7.542;2023-07-13T15:20:48;1.70;;;1.07;;
4754;SDS011;2391;47.212;7.542;2023-07-13T15:23:16;0.90;;;0.80;;
4754;SDS011;2391;47.212;7.542;2023-07-13T15:25:43;1.80;;;0.80;;
4754;SDS011;2391;47.212;7.542;2023-07-13T15:28:09;2.00;;;1.20;;
4754;SDS011;2391;47.212;7.542;2023-07-13T15:30:40;0.80;;;0.80;;
4754;SDS011;2391;47.212;7.542;2023-07-13T15:33:16;2.60;;;1.00;;
4754;SDS011;2391;47.212;7.542;2023-07-13T15:35:44;7.57;;;0.83;;
4754;SDS011;2391;47.212;7.542;2023-07-13T15:38:22;5.27;;;1.00;;
4754;SDS011;2391;47.212;7.542;2023-07-13T15:40:50;5.60;;;1.00;;
4754;SDS011;2391;47.212;7.542;2023-07-13T15:43:18;0.90;;;0.90;;
4754;SDS011;2391;47.212;7.542;2023-07-13T15:45:47;2.03;;;0.83;;
4754;SDS011;2391;47.212;7.542;2023-07-13T15:48:23;3.00;;;0.87;;
4754;SDS011;2391;47.212;7.542;2023-07-13T15:50:49;0.90;;;0.70;;
4754;SDS011;2391;47.212;7.542;2023-07-13T15:53:27;3.33;;;0.97;;
4754;SDS011;2391;47.212;7.542;2023-07-13T15:55:57;2.70;;;0.73;;